Orondo, Washington
Current Conditions -  °F | °C
As of 2:55 AM on Friday 28 Nov 2014 (Local Time) from KEAT Reporting Station
Few Clouds Few Clouds  
Wind Chill: 43°   Ceiling: Unl
Heat Index: 48°   Visibility: NA
Dew Point: 38°   Wind: 10mph
Humidity: 68%   Direction: 70°ENE
Pressure: 29.55"   Gusts: NA
Location:  47.63°N, 120.22°W
Report Text: KEAT 281055Z AUTO 07009KT FEW065 09/03 A2955 RMK AO2 SLP009 T00890033
Loading
Personal Weather Stations






























Interactive Weather Map New forecast layout! Learn more

10-Day Weather Forecast

Advertisements
Track Severe Weather on mobile